createdAt,value
2023-01-25T00:01:03.955Z,90.41
2023-01-25T00:02:05.921Z,90.25
2023-01-25T00:03:07.915Z,90.51
2023-01-25T00:04:09.768Z,90.52
2023-01-25T00:05:11.710Z,89.46
2023-01-25T00:06:13.507Z,90.30
2023-01-25T00:07:15.351Z,90.45
2023-01-25T00:08:17.257Z,89.49
2023-01-25T00:09:19.720Z,90.26
2023-01-25T00:10:21.605Z,89.47
2023-01-25T00:11:23.545Z,89.82
2023-01-25T00:12:25.326Z,89.61
2023-01-25T00:13:27.432Z,90.21
2023-01-25T00:14:29.235Z,89.45
2023-01-25T00:15:31.256Z,89.16
2023-01-25T00:16:33.284Z,89.22
2023-01-25T00:17:35.299Z,89.14
2023-01-25T00:18:37.055Z,90.01
2023-01-25T00:19:38.854Z,89.79
2023-01-25T00:20:40.849Z,89.45
2023-01-25T00:21:42.725Z,89.81
2023-01-25T00:22:44.563Z,89.68
2023-01-25T00:23:46.650Z,89.38
2023-01-25T00:24:48.519Z,90.28
2023-01-25T00:25:57.759Z,89.82
2023-01-25T00:27:00.133Z,89.91
2023-01-25T00:28:01.934Z,89.50
2023-01-25T00:29:03.892Z,89.58
2023-01-25T00:30:06.191Z,89.93
2023-01-25T00:31:10.095Z,90.18
2023-01-25T00:32:15.141Z,89.88
2023-01-25T00:33:16.953Z,90.13
2023-01-25T00:34:21.613Z,90.33
2023-01-25T00:35:23.478Z,89.74
2023-01-25T00:36:33.229Z,90.32
2023-01-25T00:37:39.367Z,89.59
2023-01-25T00:38:43.680Z,89.73
2023-01-25T00:39:45.487Z,89.89
2023-01-25T00:40:49.796Z,90.22
2023-01-25T00:41:51.621Z,90.33
2023-01-25T00:42:53.413Z,89.47
2023-01-25T00:43:55.189Z,90.32
2023-01-25T00:44:57.095Z,89.76
2023-01-25T00:46:02.356Z,90.58
2023-01-25T00:47:05.418Z,89.70
2023-01-25T00:48:07.263Z,90.03
2023-01-25T00:49:19.411Z,90.11
2023-01-25T00:50:21.323Z,89.71
2023-01-25T00:51:23.180Z,89.73
2023-01-25T00:52:25.183Z,89.51
2023-01-25T00:53:27.017Z,89.48
2023-01-25T00:54:28.866Z,90.19
2023-01-25T00:55:30.678Z,90.38
2023-01-25T00:56:32.512Z,89.53
2023-01-25T00:57:34.441Z,89.62
2023-01-25T00:58:36.426Z,90.19
2023-01-25T00:59:38.359Z,89.79
2023-01-25T01:00:40.171Z,89.66
2023-01-25T01:01:42.562Z,89.41
2023-01-25T01:02:44.465Z,89.79
2023-01-25T01:03:46.289Z,89.23
2023-01-25T01:04:48.364Z,90.06
2023-01-25T01:05:59.438Z,89.96
2023-01-25T01:07:01.281Z,89.24
2023-01-25T01:08:03.213Z,89.74
2023-01-25T01:09:06.047Z,89.48
2023-01-25T01:10:08.241Z,89.71
2023-01-25T01:11:11.053Z,90.09
2023-01-25T01:12:12.971Z,89.29
2023-01-25T01:13:14.804Z,89.51
2023-01-25T01:14:16.620Z,89.51
2023-01-25T01:15:18.425Z,89.19
2023-01-25T01:16:20.252Z,89.22
2023-01-25T01:17:22.196Z,89.14
2023-01-25T01:18:24.060Z,89.66
2023-01-25T01:19:25.935Z,89.75
2023-01-25T01:20:27.827Z,89.48
2023-01-25T01:21:29.604Z,88.98
2023-01-25T01:22:31.406Z,88.83
2023-01-25T01:23:33.337Z,89.48
2023-01-25T01:24:35.252Z,89.68
2023-01-25T01:25:37.041Z,89.25
2023-01-25T01:26:38.866Z,88.97
2023-01-25T01:27:40.681Z,88.96
2023-01-25T01:28:43.097Z,89.06
2023-01-25T01:29:44.961Z,88.86
2023-01-25T01:30:46.823Z,89.54
2023-01-25T01:31:51.550Z,88.88
2023-01-25T01:32:53.450Z,89.20
2023-01-25T01:33:57.282Z,89.52
2023-01-25T01:34:59.150Z,89.64
2023-01-25T01:36:07.262Z,88.86
2023-01-25T01:37:09.117Z,88.93
2023-01-25T01:38:10.981Z,88.66
2023-01-25T01:39:12.737Z,88.94
2023-01-25T01:40:15.020Z,88.95
2023-01-25T01:41:17.324Z,89.03
2023-01-25T01:42:19.174Z,89.43
2023-01-25T01:43:22.347Z,89.26
2023-01-25T01:44:43.863Z,89.14
2023-01-25T01:45:48.523Z,88.70
2023-01-25T01:46:55.204Z,88.81
2023-01-25T01:47:57.040Z,89.04
2023-01-25T01:49:02.039Z,89.44
2023-01-25T01:50:06.702Z,88.86
2023-01-25T01:51:27.421Z,88.87
2023-01-25T01:52:31.437Z,88.63
2023-01-25T01:53:34.246Z,88.86
2023-01-25T01:54:42.417Z,88.94
2023-01-25T01:55:44.330Z,89.01
2023-01-25T01:56:49.504Z,88.93
2023-01-25T01:57:58.225Z,89.01
2023-01-25T01:59:00.524Z,88.74
2023-01-25T02:00:28.676Z,88.92
2023-01-25T02:01:30.613Z,88.94
2023-01-25T02:02:32.487Z,89.23
2023-01-25T02:03:35.011Z,88.85
2023-01-25T02:04:37.212Z,88.78
2023-01-25T02:06:02.239Z,89.75
2023-01-25T02:07:08.171Z,89.40
2023-01-25T02:08:11.473Z,89.04
2023-01-25T02:09:15.120Z,89.29
2023-01-25T02:10:17.687Z,88.97
2023-01-25T02:11:20.369Z,89.05
2023-01-25T02:12:23.894Z,89.31
2023-01-25T02:13:25.813Z,89.19
2023-01-25T02:14:29.348Z,89.83
2023-01-25T02:15:37.612Z,89.91
2023-01-25T02:16:39.569Z,89.95
2023-01-25T02:17:42.051Z,89.61
2023-01-25T02:18:44.044Z,89.60
2023-01-25T02:20:07.915Z,89.96
2023-01-25T02:21:10.632Z,89.43
2023-01-25T02:22:16.695Z,89.42
2023-01-25T02:23:24.511Z,89.94
2023-01-25T02:24:31.968Z,89.44
2023-01-25T02:25:33.782Z,90.00
2023-01-25T02:26:35.593Z,89.78
2023-01-25T02:27:39.879Z,89.98
2023-01-25T02:28:44.821Z,89.33
2023-01-25T02:29:46.995Z,89.00
2023-01-25T02:30:49.052Z,89.33
2023-01-25T02:31:52.934Z,89.75
2023-01-25T02:32:54.857Z,89.54
2023-01-25T02:33:56.656Z,89.77
2023-01-25T02:34:58.433Z,89.52
2023-01-25T02:36:01.696Z,88.99
2023-01-25T02:37:03.640Z,89.08
2023-01-25T02:38:06.363Z,89.86
2023-01-25T02:39:10.355Z,89.81
2023-01-25T02:40:12.300Z,89.33
2023-01-25T02:41:34.443Z,88.94
2023-01-25T02:42:36.797Z,89.77
2023-01-25T02:43:38.811Z,89.65
2023-01-25T02:44:41.431Z,89.78
2023-01-25T02:45:45.460Z,89.82
2023-01-25T02:46:48.214Z,88.95
2023-01-25T02:47:50.020Z,89.68
2023-01-25T02:48:51.974Z,89.19
2023-01-25T02:49:53.946Z,89.65
2023-01-25T02:50:55.773Z,89.10
2023-01-25T02:51:57.820Z,89.20
2023-01-25T02:52:59.673Z,89.26
2023-01-25T02:54:02.270Z,89.32
2023-01-25T02:55:04.175Z,89.14
2023-01-25T02:56:06.347Z,89.10
2023-01-25T02:57:08.516Z,89.41
2023-01-25T02:58:10.304Z,89.71
2023-01-25T02:59:13.627Z,89.46
2023-01-25T03:00:15.954Z,89.65
2023-01-25T03:01:18.350Z,89.50
2023-01-25T03:02:20.241Z,89.56
2023-01-25T03:03:22.335Z,89.13
2023-01-25T03:04:24.199Z,88.86
2023-01-25T03:05:26.112Z,89.40
2023-01-25T03:06:27.946Z,88.92
2023-01-25T03:07:29.787Z,89.78
2023-01-25T03:08:31.577Z,89.05
2023-01-25T03:09:33.339Z,89.17
2023-01-25T03:10:35.361Z,88.87
2023-01-25T03:11:37.279Z,89.62
2023-01-25T03:12:39.362Z,89.09
2023-01-25T03:13:41.159Z,88.94
2023-01-25T03:14:44.664Z,88.92
2023-01-25T03:15:46.540Z,88.89
2023-01-25T03:16:48.353Z,89.16
2023-01-25T03:17:50.192Z,89.27
2023-01-25T03:18:55.603Z,89.43
2023-01-25T03:19:57.480Z,88.75
2023-01-25T03:21:25.670Z,88.60
2023-01-25T03:22:27.569Z,88.46
2023-01-25T03:23:29.413Z,88.69
2023-01-25T03:24:31.269Z,89.10
2023-01-25T03:25:33.147Z,88.77
2023-01-25T03:26:54.819Z,88.62
2023-01-25T03:27:56.605Z,88.67
2023-01-25T03:28:58.439Z,88.99
2023-01-25T03:30:00.341Z,89.05
2023-01-25T03:31:02.212Z,89.08
2023-01-25T03:32:04.688Z,89.00
2023-01-25T03:33:08.519Z,88.38
2023-01-25T03:34:10.364Z,88.51
2023-01-25T03:35:12.175Z,88.62
2023-01-25T03:36:13.992Z,88.56
2023-01-25T03:37:15.843Z,88.31
2023-01-25T03:38:17.664Z,89.25
2023-01-25T03:39:19.586Z,88.50
2023-01-25T03:40:21.424Z,88.85
2023-01-25T03:41:23.317Z,88.20
2023-01-25T03:42:25.182Z,88.50
2023-01-25T03:43:27.414Z,89.10
2023-01-25T03:44:29.357Z,88.71
2023-01-25T03:45:31.240Z,88.74
2023-01-25T03:46:32.976Z,88.87
2023-01-25T03:47:34.896Z,88.85
2023-01-25T03:48:36.740Z,88.50
2023-01-25T03:49:38.608Z,88.99
2023-01-25T03:50:40.456Z,88.71
2023-01-25T03:51:42.319Z,88.79
2023-01-25T03:52:46.730Z,88.64
2023-01-25T03:53:48.517Z,88.65
2023-01-25T03:54:50.362Z,88.05
2023-01-25T03:55:52.152Z,88.41
2023-01-25T03:56:53.973Z,88.04
2023-01-25T03:57:55.895Z,87.94
2023-01-25T03:58:57.680Z,88.03
2023-01-25T03:59:59.475Z,88.05
2023-01-25T04:01:02.146Z,88.30
2023-01-25T04:02:04.045Z,88.18
2023-01-25T04:03:05.888Z,88.36
2023-01-25T04:04:07.689Z,88.91
2023-01-25T04:05:09.853Z,88.71
2023-01-25T04:06:11.967Z,88.86
2023-01-25T04:07:13.760Z,88.63
2023-01-25T04:08:15.587Z,88.15
2023-01-25T04:09:17.432Z,88.41
2023-01-25T04:10:19.265Z,88.25
2023-01-25T04:11:21.135Z,89.12
2023-01-25T04:12:22.978Z,89.14
2023-01-25T04:13:25.365Z,88.65
2023-01-25T04:14:43.385Z,88.06
2023-01-25T04:15:46.096Z,89.00
2023-01-25T04:16:47.987Z,88.48
2023-01-25T04:17:49.824Z,89.00
2023-01-25T04:18:51.554Z,88.91
2023-01-25T04:19:53.360Z,88.36
2023-01-25T04:20:55.808Z,88.12
2023-01-25T04:21:57.608Z,89.04
2023-01-25T04:23:00.026Z,88.39
2023-01-25T04:24:01.921Z,88.11
2023-01-25T04:25:03.858Z,88.68
2023-01-25T04:26:07.330Z,88.41
2023-01-25T04:27:09.324Z,88.89
2023-01-25T04:28:11.280Z,88.65
2023-01-25T04:29:13.332Z,88.65
2023-01-25T04:30:15.237Z,88.28
2023-01-25T04:31:17.135Z,88.61
2023-01-25T04:32:19.188Z,88.06
2023-01-25T04:33:21.649Z,88.63
2023-01-25T04:34:24.378Z,88.69
2023-01-25T04:35:26.164Z,87.83
2023-01-25T04:36:28.020Z,87.95
2023-01-25T04:37:29.855Z,88.74
2023-01-25T04:38:31.701Z,88.03
2023-01-25T04:39:33.559Z,89.00
2023-01-25T04:40:35.399Z,88.61
2023-01-25T04:41:37.244Z,89.11
2023-01-25T04:42:39.116Z,88.14
2023-01-25T04:43:41.099Z,88.95
2023-01-25T04:44:43.059Z,88.15
2023-01-25T04:45:44.933Z,88.22
2023-01-25T04:46:46.823Z,88.96
2023-01-25T04:47:49.359Z,88.74
2023-01-25T04:48:51.198Z,88.40
2023-01-25T04:49:52.971Z,88.31
2023-01-25T04:50:54.770Z,88.70
2023-01-25T04:51:56.541Z,88.52
2023-01-25T04:52:58.433Z,88.98
2023-01-25T04:54:00.246Z,88.80
2023-01-25T04:55:02.071Z,88.61
2023-01-25T04:56:04.025Z,88.79
2023-01-25T04:57:05.747Z,89.57
2023-01-25T04:58:07.876Z,89.50
2023-01-25T04:59:11.253Z,89.26
2023-01-25T05:00:13.237Z,89.17
2023-01-25T05:01:14.984Z,89.95
2023-01-25T05:02:16.962Z,90.09
2023-01-25T05:03:19.472Z,89.49
2023-01-25T05:04:21.383Z,89.67
2023-01-25T05:05:23.375Z,89.09
2023-01-25T05:06:25.203Z,89.17
2023-01-25T05:07:27.037Z,89.05
2023-01-25T05:08:28.884Z,89.95
2023-01-25T05:09:31.034Z,89.33
2023-01-25T05:10:32.806Z,88.92
2023-01-25T05:11:34.572Z,89.33
2023-01-25T05:12:36.380Z,88.86
2023-01-25T05:13:38.349Z,88.64
2023-01-25T05:14:40.242Z,88.62
2023-01-25T05:15:42.084Z,89.31
2023-01-25T05:16:43.986Z,88.90
2023-01-25T05:17:45.776Z,89.26
2023-01-25T05:18:49.337Z,89.22
2023-01-25T05:19:51.745Z,89.11
2023-01-25T05:20:56.614Z,89.04
2023-01-25T05:21:58.502Z,89.25
2023-01-25T05:23:00.222Z,88.46
2023-01-25T05:24:02.175Z,88.28
2023-01-25T05:25:04.440Z,89.26
2023-01-25T05:26:24.435Z,88.89
2023-01-25T05:27:26.289Z,88.75
2023-01-25T05:28:28.084Z,88.58
2023-01-25T05:29:32.710Z,89.56
2023-01-25T05:30:34.621Z,89.42
2023-01-25T05:31:36.636Z,88.73
2023-01-25T05:32:38.435Z,89.74
2023-01-25T05:33:40.252Z,89.55
2023-01-25T05:34:42.451Z,88.97
2023-01-25T05:35:44.712Z,89.82
2023-01-25T05:36:46.467Z,89.44
2023-01-25T05:37:48.349Z,89.50
2023-01-25T05:38:50.148Z,89.74
2023-01-25T05:39:51.986Z,88.98
2023-01-25T05:40:57.842Z,89.80
2023-01-25T05:41:59.673Z,89.50
2023-01-25T05:43:01.578Z,89.35
2023-01-25T05:44:03.725Z,89.85
2023-01-25T05:45:06.100Z,89.00
2023-01-25T05:46:08.768Z,89.73
2023-01-25T05:47:14.484Z,89.28
2023-01-25T05:48:16.231Z,89.60
2023-01-25T05:49:18.124Z,89.50
2023-01-25T05:50:20.153Z,89.69
2023-01-25T05:51:22.066Z,88.78
2023-01-25T05:52:23.919Z,89.15
2023-01-25T05:53:29.279Z,88.84
2023-01-25T05:54:31.165Z,89.47
2023-01-25T05:55:35.197Z,89.35
2023-01-25T05:56:37.119Z,88.59
2023-01-25T05:57:39.072Z,88.64
2023-01-25T05:58:40.839Z,88.68
2023-01-25T05:59:42.622Z,88.86
2023-01-25T06:00:44.552Z,89.40
2023-01-25T06:01:46.448Z,89.18
2023-01-25T06:02:48.347Z,89.22
2023-01-25T06:03:50.129Z,89.41
2023-01-25T06:04:52.062Z,88.71
2023-01-25T06:05:57.454Z,88.46
2023-01-25T06:06:59.251Z,88.52
2023-01-25T06:08:01.074Z,89.20
2023-01-25T06:09:03.005Z,89.24
2023-01-25T06:10:05.531Z,88.69
2023-01-25T06:11:08.391Z,88.85
2023-01-25T06:12:11.062Z,89.19
2023-01-25T06:13:12.828Z,89.26
2023-01-25T06:14:14.708Z,89.04
2023-01-25T06:15:16.542Z,88.53
2023-01-25T06:16:19.048Z,88.43
2023-01-25T06:17:21.120Z,88.89
2023-01-25T06:18:24.816Z,89.18
2023-01-25T06:19:26.715Z,88.33
2023-01-25T06:20:28.524Z,88.52
2023-01-25T06:21:30.499Z,88.39
2023-01-25T06:22:32.380Z,88.06
2023-01-25T06:23:34.213Z,89.08
2023-01-25T06:24:35.994Z,88.23
2023-01-25T06:25:37.833Z,89.21
2023-01-25T06:26:39.608Z,88.45
2023-01-25T06:27:41.465Z,88.52
2023-01-25T06:28:43.361Z,89.46
2023-01-25T06:29:45.164Z,89.15
2023-01-25T06:30:47.258Z,89.40
2023-01-25T06:31:49.144Z,89.31
2023-01-25T06:32:51.087Z,88.54
2023-01-25T06:33:53.077Z,88.79
2023-01-25T06:34:54.852Z,88.28
2023-01-25T06:36:00.244Z,89.33
2023-01-25T06:37:02.191Z,88.33
2023-01-25T06:38:04.028Z,88.25
2023-01-25T06:39:05.865Z,88.78
2023-01-25T06:40:07.911Z,88.82
2023-01-25T06:41:13.338Z,89.11
2023-01-25T06:42:15.221Z,88.97
2023-01-25T06:43:17.025Z,88.69
2023-01-25T06:44:18.912Z,88.95
2023-01-25T06:45:21.406Z,88.88
2023-01-25T06:46:23.325Z,88.96
2023-01-25T06:47:25.165Z,89.26
2023-01-25T06:48:27.299Z,88.26
2023-01-25T06:49:29.209Z,88.59
2023-01-25T06:50:31.026Z,88.91
2023-01-25T06:51:32.791Z,88.60
2023-01-25T06:52:37.191Z,89.13
2023-01-25T06:53:41.003Z,89.23
2023-01-25T06:54:42.885Z,88.70
2023-01-25T06:55:44.672Z,89.07
2023-01-25T06:56:46.495Z,88.32
2023-01-25T06:57:48.761Z,88.74
2023-01-25T06:58:50.956Z,88.99
2023-01-25T06:59:52.913Z,88.98
2023-01-25T07:00:55.148Z,88.37
2023-01-25T07:01:57.025Z,88.28
2023-01-25T07:02:58.914Z,88.88
2023-01-25T07:04:00.778Z,88.36
2023-01-25T07:05:02.731Z,88.82
2023-01-25T07:06:06.236Z,88.50
2023-01-25T07:07:11.262Z,88.44
2023-01-25T07:08:13.131Z,88.42
2023-01-25T07:09:15.058Z,88.43
2023-01-25T07:10:16.824Z,88.32
2023-01-25T07:11:19.398Z,88.37
2023-01-25T07:12:22.535Z,88.25
2023-01-25T07:13:25.335Z,88.51
2023-01-25T07:14:27.182Z,89.16
2023-01-25T07:15:29.095Z,88.96
2023-01-25T07:16:37.065Z,88.71
2023-01-25T07:17:38.932Z,89.12
2023-01-25T07:18:41.168Z,88.63
2023-01-25T07:19:43.021Z,88.65
2023-01-25T07:20:44.785Z,88.56
2023-01-25T07:21:47.396Z,88.68
2023-01-25T07:22:49.277Z,88.22
2023-01-25T07:23:51.661Z,88.41
2023-01-25T07:24:54.227Z,88.50
2023-01-25T07:25:58.430Z,88.98
2023-01-25T07:27:00.298Z,88.96
2023-01-25T07:28:02.085Z,89.14
2023-01-25T07:29:03.911Z,89.03
2023-01-25T07:30:07.146Z,89.30
2023-01-25T07:31:09.781Z,88.92
2023-01-25T07:32:14.794Z,89.50
2023-01-25T07:33:16.618Z,89.43
2023-01-25T07:34:18.390Z,88.63
2023-01-25T07:35:20.313Z,89.64
2023-01-25T07:36:22.671Z,88.86
2023-01-25T07:37:25.561Z,89.62
2023-01-25T07:38:27.487Z,88.96
2023-01-25T07:39:29.422Z,89.02
2023-01-25T07:40:31.303Z,89.24
2023-01-25T07:41:33.681Z,88.86
2023-01-25T07:42:35.674Z,89.40
2023-01-25T07:43:37.535Z,89.42
2023-01-25T07:44:39.517Z,89.71
2023-01-25T07:45:44.849Z,89.82
2023-01-25T07:46:46.656Z,88.97
2023-01-25T07:47:48.558Z,89.55
2023-01-25T07:48:51.604Z,89.30
2023-01-25T07:49:55.206Z,89.92
2023-01-25T07:51:12.988Z,89.47
2023-01-25T07:52:14.917Z,89.84
2023-01-25T07:53:17.058Z,89.26
2023-01-25T07:54:18.840Z,89.21
2023-01-25T07:55:22.004Z,89.34
2023-01-25T07:56:25.325Z,90.11
2023-01-25T07:57:28.635Z,89.45
2023-01-25T07:58:30.556Z,89.08
2023-01-25T07:59:32.407Z,88.90
2023-01-25T08:00:34.226Z,89.12
2023-01-25T08:01:37.348Z,89.79
2023-01-25T08:02:39.531Z,89.77
2023-01-25T08:03:41.687Z,89.27
2023-01-25T08:04:44.795Z,89.21
2023-01-25T08:05:46.648Z,89.14
2023-01-25T08:06:48.422Z,89.15
2023-01-25T08:07:50.259Z,89.60
2023-01-25T08:08:52.058Z,88.76
2023-01-25T08:09:54.004Z,88.70
2023-01-25T08:10:55.872Z,88.81
2023-01-25T08:11:57.727Z,88.59
2023-01-25T08:12:59.555Z,88.32
2023-01-25T08:14:03.227Z,88.22
2023-01-25T08:15:05.306Z,89.05
2023-01-25T08:16:07.134Z,88.55
2023-01-25T08:17:08.941Z,88.75
2023-01-25T08:18:10.787Z,88.80
2023-01-25T08:19:12.847Z,88.38
2023-01-25T08:20:15.076Z,88.28
2023-01-25T08:21:23.964Z,88.92
2023-01-25T08:22:27.185Z,88.80
2023-01-25T08:23:29.549Z,87.88
2023-01-25T08:24:31.413Z,87.85
2023-01-25T08:25:33.283Z,88.44
2023-01-25T08:26:36.211Z,87.67
2023-01-25T08:27:38.043Z,87.99
2023-01-25T08:28:40.329Z,88.31
2023-01-25T08:29:42.135Z,88.28
2023-01-25T08:30:56.568Z,87.97
2023-01-25T08:31:59.459Z,88.25
2023-01-25T08:33:01.326Z,87.70
2023-01-25T08:34:03.121Z,87.36
2023-01-25T08:35:05.290Z,87.53
2023-01-25T08:36:09.208Z,87.20
2023-01-25T08:37:11.168Z,87.43
2023-01-25T08:38:12.974Z,87.23
2023-01-25T08:39:14.831Z,87.98
2023-01-25T08:40:17.249Z,87.89
2023-01-25T08:41:22.303Z,87.69
2023-01-25T08:42:24.868Z,87.95
2023-01-25T08:43:26.698Z,87.75
2023-01-25T08:44:28.590Z,87.26
2023-01-25T08:45:34.675Z,87.24
2023-01-25T08:46:36.539Z,87.56
2023-01-25T08:47:38.303Z,87.49
2023-01-25T08:48:40.100Z,87.50
2023-01-25T08:49:42.883Z,87.46
2023-01-25T08:50:47.766Z,87.51
2023-01-25T08:51:50.733Z,87.31
2023-01-25T08:52:52.648Z,88.03
2023-01-25T08:53:55.032Z,87.37
2023-01-25T08:54:57.140Z,87.70
2023-01-25T08:56:09.219Z,87.84
2023-01-25T08:57:11.118Z,87.14
2023-01-25T08:58:13.677Z,87.15
2023-01-25T08:59:15.546Z,87.41
2023-01-25T09:00:17.690Z,87.76
2023-01-25T09:01:20.195Z,87.00
2023-01-25T09:02:22.074Z,87.51
2023-01-25T09:03:23.899Z,87.43
2023-01-25T09:04:28.859Z,87.84
2023-01-25T09:05:30.755Z,87.13
2023-01-25T09:06:33.363Z,87.74
2023-01-25T09:07:38.733Z,86.89
2023-01-25T09:08:40.532Z,87.40
2023-01-25T09:09:42.425Z,87.16
2023-01-25T09:10:44.275Z,87.61
2023-01-25T09:11:46.216Z,87.80
2023-01-25T09:12:47.989Z,87.72
2023-01-25T09:13:49.807Z,87.21
2023-01-25T09:14:51.675Z,86.99
2023-01-25T09:15:58.830Z,87.18
2023-01-25T09:17:00.597Z,87.80
2023-01-25T09:18:02.456Z,87.47
2023-01-25T09:19:05.645Z,87.21
2023-01-25T09:20:08.147Z,87.58
2023-01-25T09:21:13.396Z,87.00
2023-01-25T09:22:15.177Z,87.94
2023-01-25T09:23:17.073Z,87.87
2023-01-25T09:24:18.949Z,87.20
2023-01-25T09:25:20.796Z,87.72
2023-01-25T09:26:22.702Z,87.24
2023-01-25T09:27:24.645Z,87.37
2023-01-25T09:28:27.533Z,86.92
2023-01-25T09:29:29.379Z,87.72
2023-01-25T09:30:45.553Z,87.80
2023-01-25T09:31:49.399Z,87.35
2023-01-25T09:32:51.393Z,87.75
2023-01-25T09:33:53.367Z,88.02
2023-01-25T09:34:55.169Z,87.39
2023-01-25T09:35:56.951Z,87.61
2023-01-25T09:36:58.893Z,88.02
2023-01-25T09:38:00.634Z,87.65
2023-01-25T09:39:02.443Z,88.11
2023-01-25T09:40:05.267Z,87.33
2023-01-25T09:41:13.301Z,87.50
2023-01-25T09:42:27.076Z,87.18
2023-01-25T09:43:42.986Z,87.20
2023-01-25T09:44:54.131Z,87.18
2023-01-25T09:45:56.065Z,87.09
2023-01-25T09:47:00.683Z,86.89
2023-01-25T09:48:05.311Z,87.11
2023-01-25T09:49:09.130Z,87.58
2023-01-25T09:50:14.248Z,87.10
2023-01-25T09:51:15.989Z,87.88
2023-01-25T09:52:36.600Z,87.57
2023-01-25T09:53:43.653Z,88.19
2023-01-25T09:54:47.373Z,87.91
2023-01-25T09:55:51.447Z,87.61
2023-01-25T09:56:53.252Z,88.03
2023-01-25T09:57:57.109Z,87.64
2023-01-25T09:59:00.973Z,87.96
2023-01-25T10:00:10.436Z,88.04
2023-01-25T10:01:14.448Z,88.00
2023-01-25T10:02:29.537Z,87.46
2023-01-25T10:03:39.503Z,88.17
2023-01-25T10:04:42.843Z,88.15
2023-01-25T10:05:46.200Z,87.17
2023-01-25T10:07:00.902Z,87.74
2023-01-25T10:08:19.884Z,87.46
2023-01-25T10:09:34.284Z,87.70
2023-01-25T10:10:38.765Z,87.24
2023-01-25T10:11:40.852Z,87.26
2023-01-25T10:12:42.734Z,87.50
2023-01-25T10:13:44.551Z,87.48
2023-01-25T10:14:46.653Z,87.06
2023-01-25T10:15:50.608Z,87.00
2023-01-25T10:17:08.532Z,86.94
2023-01-25T10:18:13.248Z,87.25
2023-01-25T10:19:19.463Z,86.70
2023-01-25T10:20:38.862Z,86.82
2023-01-25T10:21:43.204Z,86.62
2023-01-25T10:22:51.073Z,87.14
2023-01-25T10:24:02.179Z,87.29
2023-01-25T10:25:04.002Z,87.47
2023-01-25T10:26:11.303Z,87.02
2023-01-25T10:27:31.437Z,87.35
2023-01-25T10:28:50.300Z,87.27
2023-01-25T10:29:53.862Z,87.43
2023-01-25T10:30:58.703Z,86.96
2023-01-25T10:32:19.407Z,87.16
2023-01-25T10:33:21.777Z,87.23
2023-01-25T10:34:28.384Z,87.04
2023-01-25T10:35:40.283Z,86.78
2023-01-25T10:36:46.374Z,87.19
2023-01-25T10:37:48.618Z,87.20
2023-01-25T10:38:50.629Z,87.01
2023-01-25T10:39:58.373Z,87.13
2023-01-25T10:41:02.807Z,87.10
2023-01-25T10:42:10.393Z,87.37
2023-01-25T10:43:15.549Z,86.93
2023-01-25T10:44:24.253Z,87.16
2023-01-25T10:45:26.369Z,87.27
2023-01-25T10:46:28.272Z,87.38
2023-01-25T10:47:32.163Z,87.07
2023-01-25T10:48:35.926Z,87.50
2023-01-25T10:49:41.935Z,87.21
2023-01-25T10:50:46.687Z,87.01
2023-01-25T10:51:48.682Z,86.67
2023-01-25T10:52:58.221Z,86.29
2023-01-25T10:54:02.807Z,87.07
2023-01-25T10:55:15.949Z,86.63
2023-01-25T10:56:19.462Z,86.28
2023-01-25T10:57:22.733Z,86.02
2023-01-25T10:58:36.568Z,86.64
2023-01-25T10:59:38.645Z,86.15
2023-01-25T11:00:41.396Z,86.15
2023-01-25T11:01:43.336Z,86.33
2023-01-25T11:02:46.338Z,85.98
2023-01-25T11:03:48.159Z,86.45
2023-01-25T11:04:50.040Z,86.41
2023-01-25T11:05:55.663Z,85.83
2023-01-25T11:06:57.899Z,85.88
2023-01-25T11:08:16.407Z,85.70
2023-01-25T11:09:21.167Z,86.03
2023-01-25T11:10:33.695Z,85.64
2023-01-25T11:11:36.933Z,85.96
2023-01-25T11:12:38.743Z,85.64
2023-01-25T11:13:41.307Z,86.12
2023-01-25T11:14:43.155Z,85.94
2023-01-25T11:15:50.050Z,85.63
2023-01-25T11:16:51.824Z,86.44
2023-01-25T11:18:13.740Z,85.40
2023-01-25T11:19:27.484Z,85.39
2023-01-25T11:20:29.239Z,85.54
2023-01-25T11:21:32.750Z,85.86
2023-01-25T11:22:34.537Z,85.92
2023-01-25T11:23:36.362Z,85.59
2023-01-25T11:24:38.246Z,85.80
2023-01-25T11:25:40.284Z,85.27
2023-01-25T11:26:42.139Z,85.59
2023-01-25T11:27:43.990Z,85.80
2023-01-25T11:28:49.243Z,85.29
2023-01-25T11:30:07.476Z,85.15
2023-01-25T11:31:12.305Z,85.45
2023-01-25T11:32:16.434Z,85.77
2023-01-25T11:33:19.578Z,85.18
2023-01-25T11:34:22.753Z,85.47
2023-01-25T11:35:27.868Z,85.83
2023-01-25T11:36:35.907Z,85.55
2023-01-25T11:37:49.375Z,85.47
2023-01-25T11:39:20.597Z,85.10
2023-01-25T11:40:32.498Z,84.84
2023-01-25T11:41:44.446Z,85.60
2023-01-25T11:43:05.153Z,85.41
2023-01-25T11:44:13.160Z,85.00
2023-01-25T11:45:18.058Z,85.06
2023-01-25T11:46:35.243Z,85.16
2023-01-25T11:47:52.126Z,85.00
2023-01-25T11:48:54.016Z,84.56
2023-01-25T11:49:58.914Z,84.84
2023-01-25T11:51:11.632Z,84.61
2023-01-25T11:52:13.344Z,84.70
2023-01-25T11:53:27.218Z,85.18
2023-01-25T11:54:31.881Z,85.08
2023-01-25T11:55:45.844Z,84.85
2023-01-25T11:56:56.966Z,85.02
2023-01-25T11:57:58.734Z,85.09
2023-01-25T11:59:00.474Z,85.17
2023-01-25T12:00:15.278Z,85.13
2023-01-25T12:01:29.102Z,85.19
2023-01-25T12:02:45.333Z,84.70
2023-01-25T12:04:00.880Z,85.07
2023-01-25T12:05:22.316Z,85.11
2023-01-25T12:06:27.158Z,84.79
2023-01-25T12:07:41.409Z,84.97
2023-01-25T12:08:58.658Z,84.51
2023-01-25T12:10:09.175Z,84.56
2023-01-25T12:11:17.055Z,84.79
2023-01-25T12:12:18.827Z,84.29
2023-01-25T12:13:41.339Z,84.29
2023-01-25T12:14:50.454Z,84.60
2023-01-25T12:16:10.493Z,84.53
2023-01-25T12:17:15.384Z,84.36
2023-01-25T12:18:29.288Z,84.36
2023-01-25T12:19:31.030Z,84.42
2023-01-25T12:20:51.546Z,84.70
2023-01-25T12:22:11.992Z,84.61
2023-01-25T12:23:32.689Z,84.33
2023-01-25T12:24:59.062Z,84.76
2023-01-25T12:26:03.838Z,84.52
2023-01-25T12:27:29.891Z,84.63
2023-01-25T12:28:47.806Z,84.43
2023-01-25T12:29:58.579Z,85.03
2023-01-25T12:31:29.726Z,85.03
2023-01-25T12:32:38.713Z,84.68
2023-01-25T12:33:43.259Z,84.97
2023-01-25T12:34:48.322Z,84.61
2023-01-25T12:35:54.873Z,84.57
2023-01-25T12:37:03.591Z,84.91
2023-01-25T12:38:11.122Z,84.99
2023-01-25T12:39:13.930Z,84.85
2023-01-25T12:40:15.722Z,84.71
2023-01-25T12:41:26.353Z,84.84
2023-01-25T12:42:41.339Z,84.70
2023-01-25T12:43:49.116Z,84.61
2023-01-25T12:45:00.437Z,84.51
2023-01-25T12:46:05.338Z,84.74
2023-01-25T12:47:09.919Z,84.75
2023-01-25T12:48:14.805Z,84.40
2023-01-25T12:49:24.748Z,84.55
2023-01-25T12:50:40.836Z,84.49
2023-01-25T12:51:43.376Z,84.41
2023-01-25T12:53:05.267Z,84.90
2023-01-25T12:54:11.974Z,84.65
2023-01-25T12:55:14.928Z,84.74
2023-01-25T12:56:40.950Z,84.77
2023-01-25T12:58:09.092Z,84.45
2023-01-25T12:59:27.277Z,84.94
2023-01-25T13:00:30.373Z,84.28
2023-01-25T13:01:44.914Z,84.21
2023-01-25T13:02:57.321Z,84.28
2023-01-25T13:04:02.058Z,84.53
2023-01-25T13:05:34.329Z,84.46
2023-01-25T13:06:35.999Z,84.51
2023-01-25T13:07:42.617Z,84.34
2023-01-25T13:08:49.230Z,84.35
2023-01-25T13:09:53.971Z,84.56
2023-01-25T13:11:04.533Z,84.07
2023-01-25T13:12:06.494Z,84.07
2023-01-25T13:13:37.249Z,84.09
2023-01-25T13:14:40.116Z,84.21
2023-01-25T13:15:46.078Z,84.24
2023-01-25T13:16:53.859Z,84.10
2023-01-25T13:18:00.353Z,84.02
2023-01-25T13:19:02.355Z,83.58
2023-01-25T13:20:24.153Z,83.61
2023-01-25T13:21:45.340Z,83.90
2023-01-25T13:22:47.063Z,83.36
2023-01-25T13:24:07.275Z,83.58
2023-01-25T13:25:11.102Z,84.27
2023-01-25T13:26:21.710Z,84.06
2023-01-25T13:27:30.643Z,84.12
2023-01-25T13:28:41.219Z,83.80
2023-01-25T13:29:46.247Z,84.64
2023-01-25T13:30:56.002Z,84.34
2023-01-25T13:31:59.277Z,84.07
2023-01-25T13:33:05.974Z,83.97
2023-01-25T13:34:11.506Z,83.96
2023-01-25T13:35:25.583Z,84.04
2023-01-25T13:36:42.732Z,84.16
2023-01-25T13:37:44.660Z,83.25
2023-01-25T13:38:46.409Z,83.63
2023-01-25T13:39:50.532Z,83.54
2023-01-25T13:41:12.469Z,83.36
2023-01-25T13:42:14.306Z,83.38
2023-01-25T13:43:19.975Z,83.95
2023-01-25T13:44:28.662Z,83.85
2023-01-25T13:45:32.601Z,84.41
2023-01-25T13:46:34.518Z,83.81
2023-01-25T13:47:40.502Z,84.57
2023-01-25T13:48:47.713Z,84.49
2023-01-25T13:49:56.076Z,84.49
2023-01-25T13:51:10.681Z,84.65
2023-01-25T13:52:20.474Z,84.59